sensor_id;sensor_type;location;lat;lon;timestamp;temperature;humidity
2062;DHT22;11070;51.336;12.340;2023-09-07T00:00:48;18.90;99.90
2062;DHT22;11070;51.336;12.340;2023-09-07T00:03:14;18.90;99.90
2062;DHT22;11070;51.336;12.340;2023-09-07T00:05:41;18.80;99.90
2062;DHT22;11070;51.336;12.340;2023-09-07T00:08:07;18.80;99.90
2062;DHT22;11070;51.336;12.340;2023-09-07T00:10:33;18.80;99.90
2062;DHT22;11070;51.336;12.340;2023-09-07T00:13:02;18.70;99.90
2062;DHT22;11070;51.336;12.340;2023-09-07T00:15:29;18.60;99.90
2062;DHT22;11070;51.336;12.340;2023-09-07T00:17:56;18.60;99.90
2062;DHT22;11070;51.336;12.340;2023-09-07T00:20:22;18.50;99.90
2062;DHT22;11070;51.336;12.340;2023-09-07T00:22:49;18.50;99.90
2062;DHT22;11070;51.336;12.340;2023-09-07T00:25:14;18.50;99.90
2062;DHT22;11070;51.336;12.340;2023-09-07T00:27:40;18.40;99.90
2062;DHT22;11070;51.336;12.340;2023-09-07T00:30:06;18.40;99.90
2062;DHT22;11070;51.336;12.340;2023-09-07T00:32:36;18.40;99.90
2062;DHT22;11070;51.336;12.340;2023-09-07T00:35:03;18.40;99.90
2062;DHT22;11070;51.336;12.340;2023-09-07T00:37:29;18.40;99.90
2062;DHT22;11070;51.336;12.340;2023-09-07T00:39:54;18.30;99.90
2062;DHT22;11070;51.336;12.340;2023-09-07T00:42:20;18.30;99.90
2062;DHT22;11070;51.336;12.340;2023-09-07T00:44:46;18.20;99.90
2062;DHT22;11070;51.336;12.340;2023-09-07T00:47:14;18.10;99.90
2062;DHT22;11070;51.336;12.340;2023-09-07T00:49:40;18.20;99.90
2062;DHT22;11070;51.336;12.340;2023-09-07T00:52:06;18.20;99.90
2062;DHT22;11070;51.336;12.340;2023-09-07T00:54:33;18.10;99.90
2062;DHT22;11070;51.336;12.340;2023-09-07T00:56:59;18.20;99.90
2062;DHT22;11070;51.336;12.340;2023-09-07T00:59:25;18.10;99.90
2062;DHT22;11070;51.336;12.340;2023-09-07T01:01:51;18.00;99.90
2062;DHT22;11070;51.336;12.340;2023-09-07T01:04:17;18.00;99.90
2062;DHT22;11070;51.336;12.340;2023-09-07T01:06:47;17.90;99.90
2062;DHT22;11070;51.336;12.340;2023-09-07T01:09:19;17.90;99.90
2062;DHT22;11070;51.336;12.340;2023-09-07T01:11:45;17.80;99.90
2062;DHT22;11070;51.336;12.340;2023-09-07T01:14:11;17.80;99.90
2062;DHT22;11070;51.336;12.340;2023-09-07T01:16:37;17.80;99.90
2062;DHT22;11070;51.336;12.340;2023-09-07T01:19:06;17.90;99.90
2062;DHT22;11070;51.336;12.340;2023-09-07T01:21:36;17.90;99.90
2062;DHT22;11070;51.336;12.340;2023-09-07T01:24:05;17.90;99.90
2062;DHT22;11070;51.336;12.340;2023-09-07T01:26:31;17.80;99.90
2062;DHT22;11070;51.336;12.340;2023-09-07T01:28:57;17.80;99.90
2062;DHT22;11070;51.336;12.340;2023-09-07T01:31:23;17.80;99.90
2062;DHT22;11070;51.336;12.340;2023-09-07T01:33:48;17.80;99.90
2062;DHT22;11070;51.336;12.340;2023-09-07T01:36:14;17.80;99.90
2062;DHT22;11070;51.336;12.340;2023-09-07T01:38:40;17.70;99.90
2062;DHT22;11070;51.336;12.340;2023-09-07T01:41:05;17.70;99.90
2062;DHT22;11070;51.336;12.340;2023-09-07T01:43:31;17.60;99.90
2062;DHT22;11070;51.336;12.340;2023-09-07T01:45:56;17.60;99.90
2062;DHT22;11070;51.336;12.340;2023-09-07T01:48:22;17.60;99.90
2062;DHT22;11070;51.336;12.340;2023-09-07T01:50:52;17.60;99.90
2062;DHT22;11070;51.336;12.340;2023-09-07T01:53:19;17.50;99.90
2062;DHT22;11070;51.336;12.340;2023-09-07T01:55:45;17.50;99.90
2062;DHT22;11070;51.336;12.340;2023-09-07T01:58:10;17.50;99.90
2062;DHT22;11070;51.336;12.340;2023-09-07T02:00:37;17.40;99.90
2062;DHT22;11070;51.336;12.340;2023-09-07T02:03:05;17.40;99.90
2062;DHT22;11070;51.336;12.340;2023-09-07T02:05:30;17.40;99.90
2062;DHT22;11070;51.336;12.340;2023-09-07T02:07:58;17.30;99.90
2062;DHT22;11070;51.336;12.340;2023-09-07T02:10:23;17.30;99.90
2062;DHT22;11070;51.336;12.340;2023-09-07T02:12:49;17.30;99.90
2062;DHT22;11070;51.336;12.340;2023-09-07T02:15:15;17.20;99.90
2062;DHT22;11070;51.336;12.340;2023-09-07T02:17:40;17.20;99.90
2062;DHT22;11070;51.336;12.340;2023-09-07T02:20:10;17.20;99.90
2062;DHT22;11070;51.336;12.340;2023-09-07T02:22:37;17.10;99.90
2062;DHT22;11070;51.336;12.340;2023-09-07T02:25:03;17.10;99.90
2062;DHT22;11070;51.336;12.340;2023-09-07T02:27:32;17.10;99.90
2062;DHT22;11070;51.336;12.340;2023-09-07T02:29:57;17.00;99.90
2062;DHT22;11070;51.336;12.340;2023-09-07T02:32:23;17.00;99.90
2062;DHT22;11070;51.336;12.340;2023-09-07T02:34:49;17.00;99.90
2062;DHT22;11070;51.336;12.340;2023-09-07T02:37:14;17.00;99.90
2062;DHT22;11070;51.336;12.340;2023-09-07T02:39:42;16.90;99.90
2062;DHT22;11070;51.336;12.340;2023-09-07T02:42:07;16.90;99.90
2062;DHT22;11070;51.336;12.340;2023-09-07T02:44:33;16.80;99.90
2062;DHT22;11070;51.336;12.340;2023-09-07T02:46:59;16.80;99.90
2062;DHT22;11070;51.336;12.340;2023-09-07T02:49:24;16.70;99.90
2062;DHT22;11070;51.336;12.340;2023-09-07T02:51:50;16.70;99.90
2062;DHT22;11070;51.336;12.340;2023-09-07T02:54:16;16.70;99.90
2062;DHT22;11070;51.336;12.340;2023-09-07T02:56:41;16.70;99.90
2062;DHT22;11070;51.336;12.340;2023-09-07T02:59:07;16.70;99.90
2062;DHT22;11070;51.336;12.340;2023-09-07T03:01:33;16.80;99.90
2062;DHT22;11070;51.336;12.340;2023-09-07T03:03:59;16.70;99.90
2062;DHT22;11070;51.336;12.340;2023-09-07T03:06:25;16.70;99.90
2062;DHT22;11070;51.336;12.340;2023-09-07T03:08:51;16.70;99.90
2062;DHT22;11070;51.336;12.340;2023-09-07T03:11:18;16.70;99.90
2062;DHT22;11070;51.336;12.340;2023-09-07T03:13:44;16.60;99.90
2062;DHT22;11070;51.336;12.340;2023-09-07T03:16:10;16.60;99.90
2062;DHT22;11070;51.336;12.340;2023-09-07T03:18:35;16.60;99.90
2062;DHT22;11070;51.336;12.340;2023-09-07T03:21:02;16.50;99.90
2062;DHT22;11070;51.336;12.340;2023-09-07T03:23:32;16.50;99.90
2062;DHT22;11070;51.336;12.340;2023-09-07T03:25:58;16.40;99.90
2062;DHT22;11070;51.336;12.340;2023-09-07T03:28:24;16.30;99.90
2062;DHT22;11070;51.336;12.340;2023-09-07T03:30:51;16.30;99.90
2062;DHT22;11070;51.336;12.340;2023-09-07T03:33:17;16.30;99.90
2062;DHT22;11070;51.336;12.340;2023-09-07T03:35:43;16.30;99.90
2062;DHT22;11070;51.336;12.340;2023-09-07T03:38:08;16.20;99.90
2062;DHT22;11070;51.336;12.340;2023-09-07T03:40:34;16.20;99.90
2062;DHT22;11070;51.336;12.340;2023-09-07T03:43:00;16.10;99.90
2062;DHT22;11070;51.336;12.340;2023-09-07T03:45:25;16.10;99.90
2062;DHT22;11070;51.336;12.340;2023-09-07T03:47:51;16.00;99.90
2062;DHT22;11070;51.336;12.340;2023-09-07T03:50:17;16.00;99.90
2062;DHT22;11070;51.336;12.340;2023-09-07T03:52:42;15.90;99.90
2062;DHT22;11070;51.336;12.340;2023-09-07T03:55:08;15.90;99.90
2062;DHT22;11070;51.336;12.340;2023-09-07T03:57:34;15.80;99.90
2062;DHT22;11070;51.336;12.340;2023-09-07T04:00:00;15.80;99.90
2062;DHT22;11070;51.336;12.340;2023-09-07T04:02:27;15.80;99.90
2062;DHT22;11070;51.336;12.340;2023-09-07T04:04:54;15.70;99.90
2062;DHT22;11070;51.336;12.340;2023-09-07T04:07:20;15.70;99.90
2062;DHT22;11070;51.336;12.340;2023-09-07T04:09:46;15.70;99.90
2062;DHT22;11070;51.336;12.340;2023-09-07T04:12:12;15.70;99.90
2062;DHT22;11070;51.336;12.340;2023-09-07T04:14:38;15.60;99.90
2062;DHT22;11070;51.336;12.340;2023-09-07T04:17:04;15.60;99.90
2062;DHT22;11070;51.336;12.340;2023-09-07T04:19:30;15.60;99.90
2062;DHT22;11070;51.336;12.340;2023-09-07T04:21:57;15.60;99.90
2062;DHT22;11070;51.336;12.340;2023-09-07T04:24:23;15.60;99.90
2062;DHT22;11070;51.336;12.340;2023-09-07T04:26:49;15.60;99.90
2062;DHT22;11070;51.336;12.340;2023-09-07T04:29:15;15.50;99.90
2062;DHT22;11070;51.336;12.340;2023-09-07T04:31:41;15.60;99.90
2062;DHT22;11070;51.336;12.340;2023-09-07T04:34:07;15.50;99.90
2062;DHT22;11070;51.336;12.340;2023-09-07T04:36:33;15.50;99.90
2062;DHT22;11070;51.336;12.340;2023-09-07T04:38:59;15.50;99.90
2062;DHT22;11070;51.336;12.340;2023-09-07T04:41:24;15.50;99.90
2062;DHT22;11070;51.336;12.340;2023-09-07T04:43:50;15.60;99.90
2062;DHT22;11070;51.336;12.340;2023-09-07T04:46:16;15.50;99.90
2062;DHT22;11070;51.336;12.340;2023-09-07T04:48:42;15.60;99.90
2062;DHT22;11070;51.336;12.340;2023-09-07T04:51:09;15.50;99.90
2062;DHT22;11070;51.336;12.340;2023-09-07T04:53:37;15.50;99.90
2062;DHT22;11070;51.336;12.340;2023-09-07T04:56:04;15.50;99.90
2062;DHT22;11070;51.336;12.340;2023-09-07T04:58:30;15.50;99.90
2062;DHT22;11070;51.336;12.340;2023-09-07T05:01:02;15.60;99.90
2062;DHT22;11070;51.336;12.340;2023-09-07T05:03:28;15.60;99.90
2062;DHT22;11070;51.336;12.340;2023-09-07T05:05:54;15.60;99.90
2062;DHT22;11070;51.336;12.340;2023-09-07T05:08:19;15.70;99.90
2062;DHT22;11070;51.336;12.340;2023-09-07T05:10:47;15.80;99.90
2062;DHT22;11070;51.336;12.340;2023-09-07T05:13:13;15.90;99.90
2062;DHT22;11070;51.336;12.340;2023-09-07T05:15:47;15.90;99.90
2062;DHT22;11070;51.336;12.340;2023-09-07T05:18:13;16.00;99.90
2062;DHT22;11070;51.336;12.340;2023-09-07T05:20:39;16.10;99.90
2062;DHT22;11070;51.336;12.340;2023-09-07T05:23:04;16.10;99.90
2062;DHT22;11070;51.336;12.340;2023-09-07T05:25:30;16.20;99.90
2062;DHT22;11070;51.336;12.340;2023-09-07T05:27:56;16.30;99.90
2062;DHT22;11070;51.336;12.340;2023-09-07T05:30:22;16.40;99.90
2062;DHT22;11070;51.336;12.340;2023-09-07T05:32:47;16.50;99.90
2062;DHT22;11070;51.336;12.340;2023-09-07T05:35:13;16.60;99.90
2062;DHT22;11070;51.336;12.340;2023-09-07T05:37:41;16.70;99.90
2062;DHT22;11070;51.336;12.340;2023-09-07T05:40:08;16.80;99.90
2062;DHT22;11070;51.336;12.340;2023-09-07T05:42:33;16.90;99.90
2062;DHT22;11070;51.336;12.340;2023-09-07T05:44:59;17.00;99.90
2062;DHT22;11070;51.336;12.340;2023-09-07T05:47:25;17.20;99.90
2062;DHT22;11070;51.336;12.340;2023-09-07T05:49:52;17.30;99.90
2062;DHT22;11070;51.336;12.340;2023-09-07T05:52:17;17.30;99.90
2062;DHT22;11070;51.336;12.340;2023-09-07T05:54:43;17.40;99.90
2062;DHT22;11070;51.336;12.340;2023-09-07T05:57:08;17.60;99.90
2062;DHT22;11070;51.336;12.340;2023-09-07T05:59:34;17.60;99.90
2062;DHT22;11070;51.336;12.340;2023-09-07T06:02:00;17.70;99.90
2062;DHT22;11070;51.336;12.340;2023-09-07T06:04:26;17.80;99.90
2062;DHT22;11070;51.336;12.340;2023-09-07T06:06:51;18.00;99.90
2062;DHT22;11070;51.336;12.340;2023-09-07T06:09:17;18.20;99.90
2062;DHT22;11070;51.336;12.340;2023-09-07T06:11:43;18.80;99.90
2062;DHT22;11070;51.336;12.340;2023-09-07T06:14:08;19.70;99.90
2062;DHT22;11070;51.336;12.340;2023-09-07T06:16:34;20.50;99.90
2062;DHT22;11070;51.336;12.340;2023-09-07T06:19:00;21.30;99.90
2062;DHT22;11070;51.336;12.340;2023-09-07T06:21:26;21.90;99.90
2062;DHT22;11070;51.336;12.340;2023-09-07T06:23:51;22.60;99.90
2062;DHT22;11070;51.336;12.340;2023-09-07T06:26:17;22.80;99.90
2062;DHT22;11070;51.336;12.340;2023-09-07T06:28:44;22.90;99.90
2062;DHT22;11070;51.336;12.340;2023-09-07T06:31:10;22.90;99.90
2062;DHT22;11070;51.336;12.340;2023-09-07T06:33:35;22.50;99.90
2062;DHT22;11070;51.336;12.340;2023-09-07T06:36:01;22.30;99.90
2062;DHT22;11070;51.336;12.340;2023-09-07T06:38:28;21.90;99.90
2062;DHT22;11070;51.336;12.340;2023-09-07T06:40:53;21.60;99.90
2062;DHT22;11070;51.336;12.340;2023-09-07T06:43:19;21.40;99.90
2062;DHT22;11070;51.336;12.340;2023-09-07T06:45:45;21.20;99.90
2062;DHT22;11070;51.336;12.340;2023-09-07T06:48:10;21.10;99.90
2062;DHT22;11070;51.336;12.340;2023-09-07T06:50:38;21.10;99.90
2062;DHT22;11070;51.336;12.340;2023-09-07T06:53:03;21.20;99.90
2062;DHT22;11070;51.336;12.340;2023-09-07T06:55:29;21.40;99.90
2062;DHT22;11070;51.336;12.340;2023-09-07T06:57:55;21.50;99.90
2062;DHT22;11070;51.336;12.340;2023-09-07T07:00:21;21.50;99.90
2062;DHT22;11070;51.336;12.340;2023-09-07T07:02:47;21.60;99.90
2062;DHT22;11070;51.336;12.340;2023-09-07T07:05:12;21.60;99.90
2062;DHT22;11070;51.336;12.340;2023-09-07T07:07:38;21.70;99.90
2062;DHT22;11070;51.336;12.340;2023-09-07T07:10:05;21.80;99.90
2062;DHT22;11070;51.336;12.340;2023-09-07T07:12:31;22.00;99.90
2062;DHT22;11070;51.336;12.340;2023-09-07T07:15:00;22.30;99.90
2062;DHT22;11070;51.336;12.340;2023-09-07T07:17:27;22.70;99.90
2062;DHT22;11070;51.336;12.340;2023-09-07T07:19:52;23.20;99.90
2062;DHT22;11070;51.336;12.340;2023-09-07T07:22:18;23.60;99.90
2062;DHT22;11070;51.336;12.340;2023-09-07T07:24:44;24.20;99.90
2062;DHT22;11070;51.336;12.340;2023-09-07T07:27:10;24.60;97.50
2062;DHT22;11070;51.336;12.340;2023-09-07T07:29:36;24.90;96.10
2062;DHT22;11070;51.336;12.340;2023-09-07T07:32:03;25.50;92.90
2062;DHT22;11070;51.336;12.340;2023-09-07T07:34:29;25.90;90.10
2062;DHT22;11070;51.336;12.340;2023-09-07T07:36:55;26.30;85.30
2062;DHT22;11070;51.336;12.340;2023-09-07T07:39:20;26.80;81.90
2062;DHT22;11070;51.336;12.340;2023-09-07T07:41:46;27.30;77.40
2062;DHT22;11070;51.336;12.340;2023-09-07T07:44:12;27.60;73.80
2062;DHT22;11070;51.336;12.340;2023-09-07T07:46:37;27.70;71.00
2062;DHT22;11070;51.336;12.340;2023-09-07T07:49:03;27.90;68.60
2062;DHT22;11070;51.336;12.340;2023-09-07T07:51:29;28.20;66.60
2062;DHT22;11070;51.336;12.340;2023-09-07T07:53:55;28.70;65.00
2062;DHT22;11070;51.336;12.340;2023-09-07T07:56:23;28.90;62.60
2062;DHT22;11070;51.336;12.340;2023-09-07T07:58:50;29.50;59.80
2062;DHT22;11070;51.336;12.340;2023-09-07T08:01:17;30.00;58.60
2062;DHT22;11070;51.336;12.340;2023-09-07T08:03:43;30.30;57.00
2062;DHT22;11070;51.336;12.340;2023-09-07T08:06:09;30.60;55.60
2062;DHT22;11070;51.336;12.340;2023-09-07T08:08:36;30.90;54.90
2062;DHT22;11070;51.336;12.340;2023-09-07T08:11:02;29.70;56.00
2062;DHT22;11070;51.336;12.340;2023-09-07T08:13:34;29.80;56.70
2062;DHT22;11070;51.336;12.340;2023-09-07T08:16:01;30.70;55.50
2062;DHT22;11070;51.336;12.340;2023-09-07T08:18:27;32.00;52.80
2062;DHT22;11070;51.336;12.340;2023-09-07T08:20:53;33.00;50.90
2062;DHT22;11070;51.336;12.340;2023-09-07T08:23:20;33.60;49.10
2062;DHT22;11070;51.336;12.340;2023-09-07T08:25:46;34.30;48.40
2062;DHT22;11070;51.336;12.340;2023-09-07T08:28:12;34.80;45.80
2062;DHT22;11070;51.336;12.340;2023-09-07T08:30:38;35.20;44.40
2062;DHT22;11070;51.336;12.340;2023-09-07T08:33:04;35.80;43.30
2062;DHT22;11070;51.336;12.340;2023-09-07T08:35:32;36.20;42.40
2062;DHT22;11070;51.336;12.340;2023-09-07T08:38:01;36.60;41.40
2062;DHT22;11070;51.336;12.340;2023-09-07T08:40:30;36.60;40.80
2062;DHT22;11070;51.336;12.340;2023-09-07T08:42:56;36.70;40.00
2062;DHT22;11070;51.336;12.340;2023-09-07T08:45:22;36.80;40.10
2062;DHT22;11070;51.336;12.340;2023-09-07T08:47:52;37.40;39.10
2062;DHT22;11070;51.336;12.340;2023-09-07T08:50:18;37.70;38.00
2062;DHT22;11070;51.336;12.340;2023-09-07T08:52:45;37.70;37.30
2062;DHT22;11070;51.336;12.340;2023-09-07T08:55:12;37.80;37.10
2062;DHT22;11070;51.336;12.340;2023-09-07T08:57:39;38.10;36.80
2062;DHT22;11070;51.336;12.340;2023-09-07T09:00:05;39.00;35.80
2062;DHT22;11070;51.336;12.340;2023-09-07T09:02:39;38.90;34.90
2062;DHT22;11070;51.336;12.340;2023-09-07T09:05:05;38.60;35.70
2062;DHT22;11070;51.336;12.340;2023-09-07T09:07:31;38.20;35.80
2062;DHT22;11070;51.336;12.340;2023-09-07T09:10:05;37.80;36.40
2062;DHT22;11070;51.336;12.340;2023-09-07T09:12:31;37.80;35.60
2062;DHT22;11070;51.336;12.340;2023-09-07T09:14:59;37.90;36.20
2062;DHT22;11070;51.336;12.340;2023-09-07T09:17:25;37.50;35.80
2062;DHT22;11070;51.336;12.340;2023-09-07T09:19:51;37.70;35.90
2062;DHT22;11070;51.336;12.340;2023-09-07T09:22:17;38.40;35.30
2062;DHT22;11070;51.336;12.340;2023-09-07T09:24:43;39.10;34.60
2062;DHT22;11070;51.336;12.340;2023-09-07T09:27:08;39.30;33.60
2062;DHT22;11070;51.336;12.340;2023-09-07T09:29:37;38.70;34.20
2062;DHT22;11070;51.336;12.340;2023-09-07T09:32:04;38.10;34.60
2062;DHT22;11070;51.336;12.340;2023-09-07T09:34:37;37.30;35.90
2062;DHT22;11070;51.336;12.340;2023-09-07T09:37:03;37.60;35.70
2062;DHT22;11070;51.336;12.340;2023-09-07T09:39:29;38.00;35.30
2062;DHT22;11070;51.336;12.340;2023-09-07T09:41:56;38.00;34.70
2062;DHT22;11070;51.336;12.340;2023-09-07T09:44:22;38.00;35.10
2062;DHT22;11070;51.336;12.340;2023-09-07T09:46:53;38.00;35.30
2062;DHT22;11070;51.336;12.340;2023-09-07T09:49:22;36.60;36.80
2062;DHT22;11070;51.336;12.340;2023-09-07T09:51:50;36.80;37.20
2062;DHT22;11070;51.336;12.340;2023-09-07T09:54:17;38.40;35.60
2062;DHT22;11070;51.336;12.340;2023-09-07T09:56:44;39.20;34.50
2062;DHT22;11070;51.336;12.340;2023-09-07T09:59:11;39.50;33.30
2062;DHT22;11070;51.336;12.340;2023-09-07T10:01:45;39.30;33.30
2062;DHT22;11070;51.336;12.340;2023-09-07T10:04:13;39.80;33.30
2062;DHT22;11070;51.336;12.340;2023-09-07T10:06:54;40.30;32.70
2062;DHT22;11070;51.336;12.340;2023-09-07T10:09:20;40.10;31.80
2062;DHT22;11070;51.336;12.340;2023-09-07T10:11:54;39.80;31.90
2062;DHT22;11070;51.336;12.340;2023-09-07T10:14:20;39.30;32.60
2062;DHT22;11070;51.336;12.340;2023-09-07T10:16:51;39.80;32.70
2062;DHT22;11070;51.336;12.340;2023-09-07T10:19:25;39.20;32.60
2062;DHT22;11070;51.336;12.340;2023-09-07T10:21:53;38.40;33.10
2062;DHT22;11070;51.336;12.340;2023-09-07T10:24:30;37.50;34.00
2062;DHT22;11070;51.336;12.340;2023-09-07T10:27:00;36.70;34.70
2062;DHT22;11070;51.336;12.340;2023-09-07T10:29:27;36.60;34.90
2062;DHT22;11070;51.336;12.340;2023-09-07T10:31:53;36.60;34.80
2062;DHT22;11070;51.336;12.340;2023-09-07T10:34:19;36.40;35.50
2062;DHT22;11070;51.336;12.340;2023-09-07T10:36:46;36.40;35.70
2062;DHT22;11070;51.336;12.340;2023-09-07T10:39:12;36.70;35.30
2062;DHT22;11070;51.336;12.340;2023-09-07T10:41:45;37.00;34.30
2062;DHT22;11070;51.336;12.340;2023-09-07T10:44:11;36.80;34.30
2062;DHT22;11070;51.336;12.340;2023-09-07T10:46:39;36.40;35.00
2062;DHT22;11070;51.336;12.340;2023-09-07T10:49:11;36.90;35.10
2062;DHT22;11070;51.336;12.340;2023-09-07T10:51:45;37.50;33.50
2062;DHT22;11070;51.336;12.340;2023-09-07T10:54:21;37.40;33.60
2062;DHT22;11070;51.336;12.340;2023-09-07T10:56:48;37.20;34.00
2062;DHT22;11070;51.336;12.340;2023-09-07T10:59:14;37.80;33.50
2062;DHT22;11070;51.336;12.340;2023-09-07T11:01:41;38.70;31.90
2062;DHT22;11070;51.336;12.340;2023-09-07T11:04:07;38.90;31.50
2062;DHT22;11070;51.336;12.340;2023-09-07T11:06:34;38.70;31.40
2062;DHT22;11070;51.336;12.340;2023-09-07T11:09:01;38.70;30.80
2062;DHT22;11070;51.336;12.340;2023-09-07T11:11:33;38.30;31.10
2062;DHT22;11070;51.336;12.340;2023-09-07T11:13:59;37.90;31.50
2062;DHT22;11070;51.336;12.340;2023-09-07T11:16:25;37.40;31.60
2062;DHT22;11070;51.336;12.340;2023-09-07T11:18:54;37.70;31.70
2062;DHT22;11070;51.336;12.340;2023-09-07T11:21:20;37.60;31.60
2062;DHT22;11070;51.336;12.340;2023-09-07T11:23:46;37.60;31.10
2062;DHT22;11070;51.336;12.340;2023-09-07T11:26:12;37.80;31.30
2062;DHT22;11070;51.336;12.340;2023-09-07T11:28:39;37.20;31.60
2062;DHT22;11070;51.336;12.340;2023-09-07T11:31:06;36.90;31.20
2062;DHT22;11070;51.336;12.340;2023-09-07T11:33:32;37.30;31.80
2062;DHT22;11070;51.336;12.340;2023-09-07T11:35:58;38.30;31.80
2062;DHT22;11070;51.336;12.340;2023-09-07T11:38:29;38.30;29.60
2062;DHT22;11070;51.336;12.340;2023-09-07T11:40:55;37.90;30.50
2062;DHT22;11070;51.336;12.340;2023-09-07T11:43:24;37.30;30.70
2062;DHT22;11070;51.336;12.340;2023-09-07T11:45:49;37.70;30.90
2062;DHT22;11070;51.336;12.340;2023-09-07T11:48:15;38.10;30.50
2062;DHT22;11070;51.336;12.340;2023-09-07T11:50:41;38.80;29.80
2062;DHT22;11070;51.336;12.340;2023-09-07T11:53:07;38.90;29.60
2062;DHT22;11070;51.336;12.340;2023-09-07T11:55:33;38.70;29.60
2062;DHT22;11070;51.336;12.340;2023-09-07T11:58:00;38.30;30.30
2062;DHT22;11070;51.336;12.340;2023-09-07T12:00:26;38.40;30.50
2062;DHT22;11070;51.336;12.340;2023-09-07T12:02:51;37.80;31.70
2062;DHT22;11070;51.336;12.340;2023-09-07T12:05:17;37.60;32.10
2062;DHT22;11070;51.336;12.340;2023-09-07T12:07:45;37.30;32.20
2062;DHT22;11070;51.336;12.340;2023-09-07T12:10:11;37.50;32.80
2062;DHT22;11070;51.336;12.340;2023-09-07T12:12:40;37.30;32.30
2062;DHT22;11070;51.336;12.340;2023-09-07T12:15:07;37.50;32.60
2062;DHT22;11070;51.336;12.340;2023-09-07T12:17:34;37.60;32.50
2062;DHT22;11070;51.336;12.340;2023-09-07T12:20:00;37.30;32.70
2062;DHT22;11070;51.336;12.340;2023-09-07T12:22:26;37.50;32.10
2062;DHT22;11070;51.336;12.340;2023-09-07T12:24:52;37.70;31.60
2062;DHT22;11070;51.336;12.340;2023-09-07T12:27:18;38.40;31.10
2062;DHT22;11070;51.336;12.340;2023-09-07T12:29:45;38.50;30.50
2062;DHT22;11070;51.336;12.340;2023-09-07T12:32:10;38.30;31.20
2062;DHT22;11070;51.336;12.340;2023-09-07T12:34:36;37.70;31.10
2062;DHT22;11070;51.336;12.340;2023-09-07T12:37:02;36.90;31.70
2062;DHT22;11070;51.336;12.340;2023-09-07T12:39:32;37.20;31.70
2062;DHT22;11070;51.336;12.340;2023-09-07T12:41:57;38.00;30.40
2062;DHT22;11070;51.336;12.340;2023-09-07T12:44:23;37.90;30.90
2062;DHT22;11070;51.336;12.340;2023-09-07T12:46:49;38.40;30.00
2062;DHT22;11070;51.336;12.340;2023-09-07T12:49:14;38.10;30.40
2062;DHT22;11070;51.336;12.340;2023-09-07T12:51:45;38.00;29.80
2062;DHT22;11070;51.336;12.340;2023-09-07T12:54:11;37.50;29.90
2062;DHT22;11070;51.336;12.340;2023-09-07T12:56:37;37.00;30.40
2062;DHT22;11070;51.336;12.340;2023-09-07T12:59:02;36.90;31.10
2062;DHT22;11070;51.336;12.340;2023-09-07T13:01:29;36.80;30.60
2062;DHT22;11070;51.336;12.340;2023-09-07T13:03:56;37.20;30.80
2062;DHT22;11070;51.336;12.340;2023-09-07T13:06:22;37.60;30.30
2062;DHT22;11070;51.336;12.340;2023-09-07T13:08:47;38.00;29.90
2062;DHT22;11070;51.336;12.340;2023-09-07T13:11:13;37.70;30.10
2062;DHT22;11070;51.336;12.340;2023-09-07T13:13:39;37.40;29.90
2062;DHT22;11070;51.336;12.340;2023-09-07T13:16:05;37.50;30.20
2062;DHT22;11070;51.336;12.340;2023-09-07T13:18:30;37.50;30.00
2062;DHT22;11070;51.336;12.340;2023-09-07T13:20:57;37.30;30.20
2062;DHT22;11070;51.336;12.340;2023-09-07T13:23:29;37.80;30.00
2062;DHT22;11070;51.336;12.340;2023-09-07T13:25:57;37.50;29.90
2062;DHT22;11070;51.336;12.340;2023-09-07T13:28:23;37.30;30.50
2062;DHT22;11070;51.336;12.340;2023-09-07T13:30:52;37.30;30.00
2062;DHT22;11070;51.336;12.340;2023-09-07T13:33:18;36.30;31.20
2062;DHT22;11070;51.336;12.340;2023-09-07T13:35:44;35.20;32.90
2062;DHT22;11070;51.336;12.340;2023-09-07T13:38:10;35.60;32.90
2062;DHT22;11070;51.336;12.340;2023-09-07T13:40:36;35.90;32.60
2062;DHT22;11070;51.336;12.340;2023-09-07T13:43:02;36.50;31.90
2062;DHT22;11070;51.336;12.340;2023-09-07T13:45:27;36.90;30.50
2062;DHT22;11070;51.336;12.340;2023-09-07T13:47:55;37.30;30.70
2062;DHT22;11070;51.336;12.340;2023-09-07T13:50:21;37.50;30.50
2062;DHT22;11070;51.336;12.340;2023-09-07T13:52:48;38.30;30.00
2062;DHT22;11070;51.336;12.340;2023-09-07T13:55:13;38.40;29.90
2062;DHT22;11070;51.336;12.340;2023-09-07T13:57:39;38.20;30.00
2062;DHT22;11070;51.336;12.340;2023-09-07T14:00:05;37.90;30.40
2062;DHT22;11070;51.336;12.340;2023-09-07T14:02:31;37.30;30.90
2062;DHT22;11070;51.336;12.340;2023-09-07T14:04:58;36.70;31.20
2062;DHT22;11070;51.336;12.340;2023-09-07T14:07:24;36.20;32.00
2062;DHT22;11070;51.336;12.340;2023-09-07T14:09:54;36.40;31.80
2062;DHT22;11070;51.336;12.340;2023-09-07T14:12:20;36.80;32.00
2062;DHT22;11070;51.336;12.340;2023-09-07T14:14:47;36.60;31.90
2062;DHT22;11070;51.336;12.340;2023-09-07T14:17:13;36.80;32.20
2062;DHT22;11070;51.336;12.340;2023-09-07T14:19:39;37.00;31.30
2062;DHT22;11070;51.336;12.340;2023-09-07T14:22:04;37.10;30.60
2062;DHT22;11070;51.336;12.340;2023-09-07T14:24:30;36.60;31.20
2062;DHT22;11070;51.336;12.340;2023-09-07T14:26:56;36.10;31.90
2062;DHT22;11070;51.336;12.340;2023-09-07T14:29:21;35.70;32.80
2062;DHT22;11070;51.336;12.340;2023-09-07T14:31:47;35.30;32.10
2062;DHT22;11070;51.336;12.340;2023-09-07T14:34:13;35.20;32.90
2062;DHT22;11070;51.336;12.340;2023-09-07T14:36:39;35.60;32.80
2062;DHT22;11070;51.336;12.340;2023-09-07T14:39:08;35.70;32.90
2062;DHT22;11070;51.336;12.340;2023-09-07T14:41:35;36.20;32.60
2062;DHT22;11070;51.336;12.340;2023-09-07T14:44:01;36.90;32.10
2062;DHT22;11070;51.336;12.340;2023-09-07T14:46:26;36.80;32.00
2062;DHT22;11070;51.336;12.340;2023-09-07T14:48:52;36.20;31.70
2062;DHT22;11070;51.336;12.340;2023-09-07T14:51:18;36.20;32.60
2062;DHT22;11070;51.336;12.340;2023-09-07T14:53:44;36.10;31.90
2062;DHT22;11070;51.336;12.340;2023-09-07T14:56:10;36.00;32.40
2062;DHT22;11070;51.336;12.340;2023-09-07T14:58:36;36.30;32.00
2062;DHT22;11070;51.336;12.340;2023-09-07T15:01:02;36.50;31.40
2062;DHT22;11070;51.336;12.340;2023-09-07T15:03:29;36.40;31.70
2062;DHT22;11070;51.336;12.340;2023-09-07T15:05:54;36.30;32.00
2062;DHT22;11070;51.336;12.340;2023-09-07T15:08:20;35.50;32.00
2062;DHT22;11070;51.336;12.340;2023-09-07T15:10:46;35.30;32.90
2062;DHT22;11070;51.336;12.340;2023-09-07T15:13:12;35.20;33.10
2062;DHT22;11070;51.336;12.340;2023-09-07T15:15:39;35.10;32.90
2062;DHT22;11070;51.336;12.340;2023-09-07T15:18:06;34.80;32.70
2062;DHT22;11070;51.336;12.340;2023-09-07T15:20:33;34.60;33.10
2062;DHT22;11070;51.336;12.340;2023-09-07T15:22:59;34.70;33.00
2062;DHT22;11070;51.336;12.340;2023-09-07T15:25:24;34.40;33.20